Time;durP1;ratioP1;P1;durP2;ratioP2;P2;SDS_P1;SDS_P2;PMS_P1;PMS_P2;Temp;Humidity;BMP_temperature;BMP_pressure;BME280_temperature;BME280_humidity;BME280_pressure;Samples;Min_cycle;Max_cycle;Signal;HPM_P1;HPM_P2
2023/09/28 00:00:49;;;;;;;17.30;15.90;;;17.20;99.90;;;;;;4964843;28;20584;-78
2023/09/28 00:03:15;;;;;;;16.83;15.57;;;17.20;99.90;;;;;;4972529;28;20074;-78
2023/09/28 00:05:41;;;;;;;17.08;15.77;;;17.20;99.90;;;;;;4958721;28;20043;-78
2023/09/28 00:08:07;;;;;;;16.95;15.65;;;17.20;99.90;;;;;;4958824;28;20039;-79
2023/09/28 00:10:33;;;;;;;16.38;15.00;;;17.20;99.90;;;;;;4957644;28;20045;-78
2023/09/28 00:12:59;;;;;;;15.25;13.98;;;17.20;99.90;;;;;;4974909;28;20039;-79
2023/09/28 00:15:25;;;;;;;16.23;14.82;;;17.20;99.90;;;;;;4972758;28;20477;-79
2023/09/28 00:17:51;;;;;;;16.17;14.80;;;17.20;99.90;;;;;;4955883;28;20039;-78
2023/09/28 00:20:18;;;;;;;16.88;15.68;;;17.20;99.90;;;;;;4949124;28;20034;-78
2023/09/28 00:22:49;;;;;;;17.33;15.93;;;17.20;99.90;;;;;;4974473;28;20050;-78
2023/09/28 00:25:16;;;;;;;15.82;14.52;;;17.20;99.90;;;;;;4958251;28;20535;-78
2023/09/28 00:27:47;;;;;;;15.73;14.43;;;17.20;99.90;;;;;;4974878;28;20042;-78
2023/09/28 00:30:18;;;;;;;16.23;14.75;;;17.10;99.90;;;;;;4972667;28;20046;-78
2023/09/28 00:32:44;;;;;;;15.55;14.05;;;17.20;99.90;;;;;;4953199;28;20038;-78
2023/09/28 00:35:10;;;;;;;14.88;13.63;;;17.10;99.90;;;;;;4957950;28;20046;-78
2023/09/28 00:37:35;;;;;;;14.93;13.65;;;17.20;99.90;;;;;;4958329;28;20089;-78
2023/09/28 00:40:09;;;;;;;15.60;14.40;;;17.20;99.90;;;;;;4973398;28;20038;-79
2023/09/28 00:42:41;;;;;;;15.63;14.30;;;17.20;99.90;;;;;;4957286;28;20043;-78
2023/09/28 00:45:07;;;;;;;15.68;14.27;;;17.20;99.90;;;;;;4954839;28;20039;-78
2023/09/28 00:47:35;;;;;;;14.65;13.35;;;17.20;99.90;;;;;;4958302;28;20039;-78
2023/09/28 00:50:03;;;;;;;14.70;13.43;;;17.10;99.90;;;;;;4949529;28;20051;-78
2023/09/28 00:52:30;;;;;;;14.88;13.68;;;17.10;99.90;;;;;;4973744;28;20505;-78
2023/09/28 00:54:56;;;;;;;14.82;13.60;;;17.10;99.90;;;;;;4973896;28;20046;-78
2023/09/28 00:57:22;;;;;;;15.52;14.20;;;17.10;99.90;;;;;;4973139;28;20093;-78
2023/09/28 00:59:48;;;;;;;14.85;13.43;;;17.00;99.90;;;;;;4962682;28;20126;-78
2023/09/28 01:02:14;;;;;;;15.35;14.13;;;17.00;99.90;;;;;;4958109;28;20122;-78
2023/09/28 01:04:41;;;;;;;14.57;13.32;;;17.00;99.90;;;;;;4957546;28;20043;-79
2023/09/28 01:07:07;;;;;;;14.68;13.32;;;17.00;99.90;;;;;;4973767;28;20532;-78
2023/09/28 01:09:32;;;;;;;14.73;13.55;;;17.00;99.90;;;;;;4972225;28;20046;-78
2023/09/28 01:11:59;;;;;;;14.75;13.43;;;17.00;99.90;;;;;;4956683;28;20118;-78
2023/09/28 01:14:24;;;;;;;14.10;13.00;;;17.00;99.90;;;;;;4957347;28;20062;-78
2023/09/28 01:16:50;;;;;;;13.65;12.43;;;16.90;99.90;;;;;;4950644;28;20495;-78
2023/09/28 01:19:16;;;;;;;13.93;12.68;;;16.90;99.90;;;;;;4952964;28;20370;-78
2023/09/28 01:21:42;;;;;;;14.38;12.98;;;16.90;99.90;;;;;;4957625;28;20042;-78
2023/09/28 01:24:07;;;;;;;12.70;11.60;;;16.80;99.90;;;;;;4972344;28;20390;-78
2023/09/28 01:26:34;;;;;;;12.95;11.85;;;16.80;99.90;;;;;;4950142;28;20047;-78
2023/09/28 01:29:00;;;;;;;12.95;11.82;;;16.70;99.90;;;;;;4972274;28;20046;-78
2023/09/28 01:31:27;;;;;;;12.63;11.57;;;16.70;99.90;;;;;;4965698;28;20042;-78
2023/09/28 01:33:53;;;;;;;13.02;11.82;;;16.60;99.90;;;;;;4957438;28;20432;-78
2023/09/28 01:36:19;;;;;;;12.68;11.57;;;16.60;99.90;;;;;;4973022;28;20039;-78
2023/09/28 01:38:51;;;;;;;12.57;11.48;;;16.60;99.90;;;;;;4948739;29;20102;-78
2023/09/28 01:41:16;;;;;;;13.13;11.97;;;16.50;99.90;;;;;;4954158;28;20098;-78
2023/09/28 01:43:42;;;;;;;12.35;11.25;;;16.50;99.90;;;;;;4972732;28;20046;-78
2023/09/28 01:46:09;;;;;;;13.32;12.07;;;16.50;99.90;;;;;;4971450;28;20460;-78
2023/09/28 01:48:35;;;;;;;13.25;12.07;;;16.40;99.90;;;;;;4955864;28;20047;-78
2023/09/28 01:51:02;;;;;;;14.18;12.70;;;16.30;99.90;;;;;;4956935;28;20378;-78
2023/09/28 01:53:27;;;;;;;12.65;11.40;;;16.30;99.90;;;;;;4965038;28;20043;-78
2023/09/28 01:55:53;;;;;;;13.38;12.20;;;16.30;99.90;;;;;;4972759;28;20042;-78
2023/09/28 01:58:18;;;;;;;11.63;10.50;;;16.20;99.90;;;;;;4971465;28;20043;-78
2023/09/28 02:00:46;;;;;;;14.65;11.07;;;16.20;99.90;;;;;;4972721;28;20034;-78
2023/09/28 02:03:14;;;;;;;12.60;11.50;;;16.20;99.90;;;;;;4970531;28;20560;-78
2023/09/28 02:05:40;;;;;;;13.02;11.80;;;16.10;99.90;;;;;;4964898;28;20043;-77
2023/09/28 02:08:05;;;;;;;11.18;10.07;;;16.10;99.90;;;;;;4950913;28;20042;-78
2023/09/28 02:10:32;;;;;;;11.90;10.80;;;16.00;99.90;;;;;;4964769;28;20038;-78
2023/09/28 02:12:59;;;;;;;12.40;11.40;;;16.00;99.90;;;;;;4971225;28;20078;-78
2023/09/28 02:15:24;;;;;;;12.18;11.07;;;16.00;99.90;;;;;;4956178;28;20492;-78
2023/09/28 02:17:50;;;;;;;12.63;11.25;;;15.90;99.90;;;;;;4962449;28;20041;-78
2023/09/28 02:20:18;;;;;;;12.63;11.35;;;15.90;99.90;;;;;;4969299;28;20504;-78
2023/09/28 02:22:45;;;;;;;11.82;10.70;;;15.90;99.90;;;;;;4952148;28;20117;-78
2023/09/28 02:25:17;;;;;;;12.52;11.43;;;15.80;99.90;;;;;;4972189;28;20038;-78
2023/09/28 02:27:44;;;;;;;11.70;10.60;;;15.80;99.90;;;;;;4955079;28;20039;-78
2023/09/28 02:30:14;;;;;;;11.98;10.82;;;15.70;99.90;;;;;;4951690;29;20039;-78
2023/09/28 02:32:40;;;;;;;12.48;11.35;;;15.70;99.90;;;;;;4948214;28;20126;-78
2023/09/28 02:35:10;;;;;;;13.40;11.73;;;15.70;99.90;;;;;;4970066;28;20077;-78
2023/09/28 02:37:37;;;;;;;12.80;11.60;;;15.70;99.90;;;;;;4955076;28;20098;-78
2023/09/28 02:40:05;;;;;;;13.57;12.27;;;15.70;99.90;;;;;;4972037;28;20039;-78
2023/09/28 02:42:32;;;;;;;13.32;12.20;;;15.60;99.90;;;;;;4955447;28;20515;-78
2023/09/28 02:44:58;;;;;;;13.93;12.63;;;15.60;99.90;;;;;;4950291;28;20034;-78
2023/09/28 02:47:24;;;;;;;13.90;12.70;;;15.60;99.90;;;;;;4972039;28;20050;-78
2023/09/28 02:49:51;;;;;;;13.85;12.68;;;15.60;99.90;;;;;;4970095;28;20038;-78
2023/09/28 02:52:17;;;;;;;14.48;12.98;;;15.50;99.90;;;;;;4961570;28;20036;-78
2023/09/28 02:54:43;;;;;;;14.35;12.95;;;15.50;99.90;;;;;;4936294;29;20453;-78
2023/09/28 02:57:09;;;;;;;14.60;13.40;;;15.50;99.90;;;;;;4956014;28;20114;-78
2023/09/28 02:59:36;;;;;;;14.20;12.80;;;15.60;99.90;;;;;;4955552;28;20512;-78
2023/09/28 03:02:02;;;;;;;15.27;13.88;;;15.60;99.90;;;;;;4970679;28;20043;-78
2023/09/28 03:04:31;;;;;;;15.13;13.80;;;15.50;99.90;;;;;;4965084;28;20035;-78
2023/09/28 03:06:57;;;;;;;15.10;13.75;;;15.50;99.90;;;;;;4971316;28;20043;-78
2023/09/28 03:09:23;;;;;;;15.43;14.00;;;15.50;99.90;;;;;;4955652;28;20049;-78
2023/09/28 03:11:49;;;;;;;14.45;13.15;;;15.50;99.90;;;;;;4949823;28;20034;-78
2023/09/28 03:14:14;;;;;;;15.55;14.02;;;15.50;99.90;;;;;;4969375;28;20440;-78
2023/09/28 03:16:40;;;;;;;14.43;13.23;;;15.50;99.90;;;;;;4971683;28;20045;-78
2023/09/28 03:19:06;;;;;;;16.73;13.63;;;15.60;99.90;;;;;;4964622;28;20035;-78
2023/09/28 03:21:33;;;;;;;15.25;13.85;;;15.60;99.90;;;;;;4963596;28;20078;-78
2023/09/28 03:23:59;;;;;;;15.52;14.05;;;15.60;99.90;;;;;;4955331;28;20039;-78
2023/09/28 03:26:27;;;;;;;14.68;13.30;;;15.60;99.90;;;;;;4955311;28;20058;-78
2023/09/28 03:28:52;;;;;;;15.43;14.00;;;15.60;99.90;;;;;;4970486;28;20051;-78
2023/09/28 03:31:18;;;;;;;15.48;14.07;;;15.60;99.90;;;;;;4947308;29;20457;-79
2023/09/28 03:33:43;;;;;;;12.57;11.43;;;15.60;99.90;;;;;;4964054;28;20077;-78
2023/09/28 03:36:09;;;;;;;13.80;12.65;;;15.60;99.90;;;;;;4955357;28;20043;-78
2023/09/28 03:38:35;;;;;;;14.23;12.75;;;15.60;99.90;;;;;;4955724;28;20400;-78
2023/09/28 03:41:01;;;;;;;13.90;12.73;;;15.50;99.90;;;;;;4952104;28;20130;-78
2023/09/28 03:43:26;;;;;;;13.45;12.07;;;15.50;99.90;;;;;;4968009;28;20093;-78
2023/09/28 03:45:52;;;;;;;14.07;12.77;;;15.40;99.90;;;;;;4954761;28;20038;-78
2023/09/28 03:48:17;;;;;;;15.30;13.88;;;15.40;99.90;;;;;;4955791;28;20042;-78
2023/09/28 03:50:43;;;;;;;14.20;13.10;;;15.40;99.90;;;;;;4952034;28;20039;-78
2023/09/28 03:53:08;;;;;;;15.10;13.57;;;15.30;99.90;;;;;;4967072;28;20046;-78
2023/09/28 03:55:34;;;;;;;14.73;13.27;;;15.20;99.90;;;;;;4955064;28;20089;-78
2023/09/28 03:58:00;;;;;;;14.95;13.55;;;15.20;99.90;;;;;;4969974;28;20053;-78
2023/09/28 04:00:26;;;;;;;14.57;13.38;;;15.20;99.90;;;;;;4967870;28;20398;-78
2023/09/28 04:02:52;;;;;;;16.70;15.00;;;15.20;99.90;;;;;;4958336;28;20043;-78
2023/09/28 04:05:18;;;;;;;14.55;13.18;;;15.10;99.90;;;;;;4971026;28;20105;-78
2023/09/28 04:07:44;;;;;;;15.10;13.80;;;15.10;99.90;;;;;;4957090;28;20501;-78
2023/09/28 04:10:10;;;;;;;15.35;14.05;;;15.10;99.90;;;;;;4958793;28;20038;-78
2023/09/28 04:12:35;;;;;;;15.50;14.20;;;15.00;99.90;;;;;;4942303;28;20041;-78
2023/09/28 04:15:01;;;;;;;15.30;14.00;;;15.00;99.90;;;;;;4971419;28;20133;-78
2023/09/28 04:17:27;;;;;;;17.30;15.60;;;15.00;99.90;;;;;;4949327;28;20035;-78
2023/09/28 04:19:54;;;;;;;17.63;15.90;;;15.00;99.90;;;;;;4974839;28;20125;-78
2023/09/28 04:22:19;;;;;;;18.17;16.35;;;15.00;99.90;;;;;;4950175;28;20401;-78
2023/09/28 04:24:45;;;;;;;17.90;16.20;;;15.00;99.90;;;;;;4958460;28;20050;-78
2023/09/28 04:27:11;;;;;;;18.58;16.98;;;15.00;99.90;;;;;;4958437;28;20039;-78
2023/09/28 04:29:37;;;;;;;20.38;18.63;;;15.00;99.90;;;;;;4962890;28;20122;-78
2023/09/28 04:32:03;;;;;;;20.10;18.08;;;15.10;99.90;;;;;;4955566;28;20035;-78
2023/09/28 04:34:31;;;;;;;17.80;16.05;;;15.10;99.90;;;;;;4948968;28;20113;-78
2023/09/28 04:36:57;;;;;;;19.08;17.38;;;15.10;99.90;;;;;;4974426;28;20030;-78
2023/09/28 04:39:24;;;;;;;17.92;16.02;;;15.10;99.90;;;;;;4974364;28;20093;-78
2023/09/28 04:41:53;;;;;;;19.10;17.30;;;15.10;99.90;;;;;;4945969;28;20073;-78
2023/09/28 04:44:19;;;;;;;18.45;16.85;;;15.10;99.90;;;;;;4955463;28;20566;-78
2023/09/28 04:46:44;;;;;;;18.60;17.00;;;15.10;99.90;;;;;;4949532;28;20117;-78
2023/09/28 04:49:10;;;;;;;20.45;18.52;;;15.00;99.90;;;;;;4957961;28;20041;-78
2023/09/28 04:51:36;;;;;;;17.83;16.08;;;15.00;99.90;;;;;;4969238;28;20038;-78
2023/09/28 04:54:04;;;;;;;18.20;16.58;;;15.00;99.90;;;;;;4973706;28;20046;-78
2023/09/28 04:56:30;;;;;;;20.90;19.10;;;15.00;99.90;;;;;;4968443;28;20105;-78
2023/09/28 04:58:56;;;;;;;18.02;16.55;;;14.90;99.90;;;;;;4945161;28;20045;-78
2023/09/28 05:01:22;;;;;;;18.90;17.17;;;15.00;99.90;;;;;;4944086;28;20043;-78
2023/09/28 05:03:48;;;;;;;21.20;19.20;;;15.00;99.90;;;;;;4967909;28;20453;-77
2023/09/28 05:06:13;;;;;;;19.27;17.33;;;15.00;99.90;;;;;;4970083;28;20043;-78
2023/09/28 05:08:39;;;;;;;17.85;16.08;;;15.00;99.90;;;;;;4974678;28;20047;-80
2023/09/28 05:11:05;;;;;;;16.60;15.02;;;15.00;99.90;;;;;;4959155;28;20559;-77
2023/09/28 05:13:31;;;;;;;16.30;14.57;;;15.00;99.90;;;;;;4970456;28;20057;-78
2023/09/28 05:15:57;;;;;;;15.75;14.20;;;15.00;99.90;;;;;;4960709;28;20031;-78
2023/09/28 05:18:23;;;;;;;18.25;15.20;;;15.00;99.90;;;;;;4972534;28;20046;-77
2023/09/28 05:20:48;;;;;;;15.32;13.73;;;15.00;99.90;;;;;;4943407;28;20493;-78
2023/09/28 07:34:50;;;;;;;28.02;8.15;;;16.00;99.90;;;;;;4971620;28;20583;-84
2023/09/28 07:37:16;;;;;;;21.15;7.07;;;16.00;99.90;;;;;;4955856;28;20046;-85
2023/09/28 07:39:42;;;;;;;22.90;7.72;;;16.10;99.90;;;;;;4955896;28;20074;-85
2023/09/28 07:42:08;;;;;;;23.42;8.02;;;16.20;99.90;;;;;;4956886;28;20074;-85
2023/09/28 07:44:34;;;;;;;24.13;8.07;;;16.40;99.90;;;;;;4958186;28;20047;-84
2023/09/28 12:07:08;;;;;;;21.92;6.03;;;20.60;99.90;;;;;;5519400;23;20046;-85
2023/09/28 12:09:34;;;;;;;21.85;5.90;;;20.50;99.90;;;;;;4955447;28;20054;-84
2023/09/28 12:11:59;;;;;;;19.92;5.75;;;20.60;99.90;;;;;;4939447;28;20507;-85
2023/09/28 12:14:25;;;;;;;22.45;6.57;;;20.50;99.90;;;;;;4939462;28;20082;-85
2023/09/28 12:16:52;;;;;;;20.15;5.55;;;20.60;99.90;;;;;;4943108;28;20481;-85
2023/09/28 17:59:49;;;;;;;19.60;6.05;;;15.70;99.90;;;;;;4970522;28;20039;-77
2023/09/28 18:02:18;;;;;;;18.83;6.10;;;15.70;99.90;;;;;;4939942;29;20359;-77
2023/09/28 18:04:44;;;;;;;21.25;6.55;;;15.60;99.90;;;;;;4937608;28;20505;-77
2023/09/28 18:07:10;;;;;;;18.58;5.85;;;15.60;99.90;;;;;;4929770;29;20081;-77
2023/09/28 18:09:35;;;;;;;19.15;6.60;;;15.60;99.90;;;;;;4949313;28;20046;-77
2023/09/28 18:12:03;;;;;;;16.98;6.00;;;15.50;99.90;;;;;;4996067;23;20023;-84
2023/09/28 18:14:29;;;;;;;19.02;6.00;;;15.50;99.90;;;;;;4934605;29;20043;-82
2023/09/28 18:16:55;;;;;;;18.67;6.38;;;15.50;99.90;;;;;;4930296;29;20042;-82
2023/09/28 18:19:21;;;;;;;18.35;6.13;;;15.50;99.90;;;;;;4961098;28;20039;-82
2023/09/28 18:21:46;;;;;;;16.10;6.13;;;15.50;99.90;;;;;;4953704;28;20390;-82
2023/09/28 18:24:12;;;;;;;17.75;5.97;;;15.40;99.90;;;;;;4939605;28;20054;-82
2023/09/28 18:26:37;;;;;;;15.23;5.80;;;15.40;99.90;;;;;;4942931;28;20644;-82
2023/09/28 18:29:04;;;;;;;16.27;5.90;;;15.30;99.90;;;;;;4948220;28;20047;-82
2023/09/28 18:31:30;;;;;;;19.98;6.03;;;15.30;99.90;;;;;;4948980;28;20047;-82
2023/09/28 18:33:55;;;;;;;16.50;5.57;;;15.30;99.90;;;;;;4953995;28;20042;-83
2023/09/28 18:36:21;;;;;;;18.95;5.95;;;15.30;99.90;;;;;;4950842;28;20049;-81
2023/09/28 18:38:47;;;;;;;17.65;5.85;;;15.20;99.90;;;;;;4950248;29;20039;-82
2023/09/28 18:41:17;;;;;;;18.27;6.30;;;15.20;99.90;;;;;;4946181;28;20130;-83
2023/09/28 18:43:43;;;;;;;15.13;4.93;;;15.20;99.90;;;;;;4948329;28;20093;-82
2023/09/28 18:46:09;;;;;;;16.27;6.00;;;15.10;99.90;;;;;;4949669;28;20030;-82
2023/09/28 18:48:35;;;;;;;21.73;7.70;;;15.10;99.90;;;;;;4967737;28;20114;-82
2023/09/28 18:51:01;;;;;;;25.77;7.63;;;15.10;99.90;;;;;;4950622;28;20049;-83
2023/09/28 18:53:27;;;;;;;22.20;7.60;;;15.10;99.90;;;;;;4955172;28;20066;-82
2023/09/28 18:55:52;;;;;;;21.23;7.95;;;15.10;99.90;;;;;;4949642;28;20101;-83
2023/09/28 18:58:18;;;;;;;20.13;7.50;;;15.10;99.90;;;;;;4940236;28;20043;-82
2023/09/28 19:00:47;;;;;;;26.08;9.00;;;15.10;99.90;;;;;;4955453;28;20038;-82
2023/09/28 19:03:12;;;;;;;15.65;6.18;;;15.10;99.90;;;;;;4955063;28;20517;-83
2023/09/28 19:05:39;;;;;;;21.40;7.47;;;15.10;99.90;;;;;;4955144;28;20042;-82
2023/09/28 19:08:05;;;;;;;14.45;6.10;;;15.00;99.90;;;;;;4948508;28;20100;-83
2023/09/28 19:10:31;;;;;;;17.05;6.30;;;14.90;99.90;;;;;;4954938;28;20489;-82
2023/09/28 19:12:57;;;;;;;28.10;8.32;;;14.90;99.90;;;;;;4954871;28;20050;-82
2023/09/28 19:15:22;;;;;;;23.45;7.97;;;14.80;99.90;;;;;;4950675;28;20051;-83
2023/09/28 19:17:53;;;;;;;23.50;7.65;;;14.80;99.90;;;;;;4951716;28;20030;-82
2023/09/28 19:20:22;;;;;;;18.40;6.18;;;14.80;99.90;;;;;;4966218;28;20402;-82
2023/09/28 19:22:48;;;;;;;18.20;7.35;;;14.70;99.90;;;;;;4950095;28;20038;-83
2023/09/28 19:25:15;;;;;;;21.20;8.10;;;14.70;99.90;;;;;;4945772;28;20035;-86
2023/09/28 19:27:41;;;;;;;20.27;7.57;;;14.60;99.90;;;;;;4949338;28;20133;-82
2023/09/28 19:30:09;;;;;;;18.55;7.85;;;14.60;99.90;;;;;;4953656;28;20476;-83
2023/09/28 19:32:35;;;;;;;18.48;7.95;;;14.60;99.90;;;;;;4952029;28;20035;-83
2023/09/28 19:35:03;;;;;;;26.15;9.32;;;14.50;99.90;;;;;;4945892;29;20035;-83
2023/09/28 19:37:29;;;;;;;25.52;9.70;;;14.50;99.90;;;;;;4951251;28;20037;-82
2023/09/28 19:39:54;;;;;;;28.50;12.05;;;14.60;99.90;;;;;;4958962;28;20047;-82
2023/09/28 19:42:20;;;;;;;28.80;11.73;;;14.60;99.90;;;;;;4973662;28;20039;-82
2023/09/28 19:44:46;;;;;;;21.48;12.05;;;14.50;99.90;;;;;;4956276;28;20041;-83
2023/09/28 19:47:12;;;;;;;26.55;13.10;;;14.60;99.90;;;;;;4972589;28;20078;-82
2023/09/28 19:49:38;;;;;;;30.00;13.85;;;14.50;99.90;;;;;;4974588;28;20079;-83
2023/09/28 19:52:03;;;;;;;33.63;13.35;;;14.60;99.90;;;;;;4974029;28;20378;-83
2023/09/28 19:54:29;;;;;;;29.20;13.80;;;14.60;99.90;;;;;;4973428;28;20117;-82
2023/09/28 19:56:55;;;;;;;26.25;11.27;;;14.60;99.90;;;;;;4958082;28;20524;-83
2023/09/28 19:59:20;;;;;;;29.50;12.98;;;14.60;99.90;;;;;;4959010;28;20493;-83
2023/09/28 20:01:46;;;;;;;25.85;11.45;;;14.60;99.90;;;;;;4958421;28;20053;-83
2023/09/28 20:04:12;;;;;;;27.13;12.63;;;14.60;99.90;;;;;;4956575;28;20034;-85
2023/09/28 20:06:37;;;;;;;27.00;12.48;;;14.60;99.90;;;;;;4954030;28;20047;-84
2023/09/28 20:09:03;;;;;;;22.20;11.43;;;14.60;99.90;;;;;;4953634;28;20070;-84
2023/09/28 20:11:29;;;;;;;22.70;11.60;;;14.60;99.90;;;;;;4958082;28;20078;-84
2023/09/28 20:13:56;;;;;;;27.33;12.95;;;14.60;99.90;;;;;;4963317;28;20043;-84
2023/09/28 20:16:21;;;;;;;31.60;13.25;;;14.60;99.90;;;;;;4941252;28;20034;-83
2023/09/28 20:18:47;;;;;;;32.67;13.23;;;14.60;99.90;;;;;;4957888;28;20523;-84
2023/09/28 20:21:13;;;;;;;33.63;14.80;;;14.60;99.90;;;;;;4955970;28;20543;-84
2023/09/28 20:23:38;;;;;;;27.05;12.15;;;14.60;99.90;;;;;;4945362;28;20046;-85
2023/09/28 20:26:04;;;;;;;28.48;12.45;;;14.60;99.90;;;;;;4952201;28;20038;-84
2023/09/28 20:28:29;;;;;;;22.35;11.85;;;14.60;99.90;;;;;;4972700;28;20112;-84
2023/09/28 20:30:58;;;;;;;27.63;15.02;;;14.60;99.90;;;;;;4956120;28;20512;-84
2023/09/28 20:33:24;;;;;;;26.83;12.60;;;14.50;99.90;;;;;;4972420;28;20048;-84
2023/09/28 20:35:50;;;;;;;26.20;12.60;;;14.60;99.90;;;;;;4944169;28;20039;-84
2023/09/28 20:38:15;;;;;;;31.13;13.30;;;14.50;99.90;;;;;;4956696;28;20065;-84
2023/09/28 20:40:41;;;;;;;32.05;14.65;;;14.60;99.90;;;;;;4956248;28;20030;-85
2023/09/28 20:43:07;;;;;;;28.70;13.63;;;14.60;99.90;;;;;;4957758;28;20044;-84
2023/09/28 20:45:39;;;;;;;30.63;13.93;;;14.50;99.90;;;;;;4970030;28;20057;-83
2023/09/28 20:48:06;;;;;;;27.33;13.30;;;14.60;99.90;;;;;;4972608;28;20039;-83
2023/09/28 20:50:32;;;;;;;24.67;11.60;;;14.50;99.90;;;;;;4948751;28;20045;-84
2023/09/28 20:52:58;;;;;;;32.25;14.48;;;14.50;99.90;;;;;;4951165;28;20552;-85
2023/09/28 20:55:24;;;;;;;26.17;13.18;;;14.60;99.90;;;;;;4949672;28;20047;-85
2023/09/28 20:57:49;;;;;;;30.23;12.95;;;14.60;99.90;;;;;;4955378;28;20487;-84
2023/09/28 21:00:15;;;;;;;24.75;12.13;;;14.60;99.90;;;;;;4949077;28;20485;-84
2023/09/28 21:02:41;;;;;;;30.60;14.43;;;14.60;99.90;;;;;;4952838;28;20127;-85
2023/09/28 21:05:08;;;;;;;25.92;12.20;;;14.50;99.90;;;;;;4952653;28;20047;-85
2023/09/28 21:07:33;;;;;;;26.27;12.43;;;14.50;99.90;;;;;;4955507;28;20046;-84
2023/09/28 21:09:59;;;;;;;33.38;15.23;;;14.60;99.90;;;;;;4947416;29;20045;-84
2023/09/28 21:12:25;;;;;;;27.58;13.25;;;14.50;99.90;;;;;;4953440;28;20038;-84
2023/09/28 21:14:50;;;;;;;22.95;12.30;;;14.60;99.90;;;;;;4956842;28;20562;-83
2023/09/28 21:17:16;;;;;;;27.05;13.40;;;14.60;99.90;;;;;;4971329;28;20035;-84
2023/09/28 21:19:42;;;;;;;32.45;14.05;;;14.60;99.90;;;;;;4954969;28;20129;-84
2023/09/28 21:22:07;;;;;;;28.25;14.02;;;14.60;99.90;;;;;;4948634;28;20043;-84
2023/09/28 21:24:33;;;;;;;27.40;13.38;;;14.70;99.90;;;;;;4957271;28;20421;-84
2023/09/28 21:26:58;;;;;;;30.73;13.90;;;14.70;99.90;;;;;;4942586;29;20066;-84
2023/09/28 21:29:24;;;;;;;31.20;14.10;;;14.80;99.90;;;;;;4938569;29;20050;-85
2023/09/28 21:31:49;;;;;;;25.63;13.43;;;14.80;99.90;;;;;;4937960;28;20043;-85
2023/09/28 21:34:15;;;;;;;23.90;12.32;;;14.80;99.90;;;;;;4941300;28;20047;-84
2023/09/28 21:36:41;;;;;;;24.25;13.18;;;14.80;99.90;;;;;;4949078;28;20394;-84
2023/09/28 21:39:07;;;;;;;25.83;12.90;;;14.80;99.90;;;;;;4958057;28;20054;-85
2023/09/28 21:41:33;;;;;;;27.10;13.80;;;14.90;99.90;;;;;;4957527;28;20039;-85
2023/09/28 21:43:58;;;;;;;27.38;13.25;;;14.90;99.90;;;;;;4950286;28;20046;-85
2023/09/28 21:46:24;;;;;;;28.08;13.60;;;14.90;99.90;;;;;;4972698;28;20286;-84
2023/09/28 21:48:50;;;;;;;26.02;13.35;;;14.90;99.90;;;;;;4957311;28;20039;-84
2023/09/28 21:51:20;;;;;;;26.52;13.93;;;14.90;99.90;;;;;;4957631;28;20070;-85
2023/09/28 21:53:49;;;;;;;26.77;13.35;;;14.90;99.90;;;;;;4952491;28;20035;-84
2023/09/28 21:56:18;;;;;;;26.60;13.60;;;14.90;99.90;;;;;;4954480;28;20042;-84
2023/09/28 21:58:45;;;;;;;29.25;14.27;;;15.00;99.90;;;;;;4973340;28;20512;-84
2023/09/28 22:01:12;;;;;;;23.85;11.70;;;14.90;99.90;;;;;;4956673;28;20041;-84
2023/09/28 22:03:38;;;;;;;27.42;12.70;;;14.90;99.90;;;;;;4954936;28;20049;-84
2023/09/28 22:06:03;;;;;;;26.75;13.65;;;14.90;99.90;;;;;;4956993;28;20162;-85
2023/09/28 22:08:29;;;;;;;26.25;12.05;;;14.90;99.90;;;;;;4956993;28;20066;-84
2023/09/28 22:10:55;;;;;;;24.52;12.15;;;14.90;99.90;;;;;;4957039;28;20049;-84
2023/09/28 22:13:20;;;;;;;23.15;12.32;;;15.00;99.90;;;;;;4947933;28;20031;-84
2023/09/28 22:15:46;;;;;;;26.67;12.85;;;15.00;99.90;;;;;;4955722;28;20382;-85
2023/09/28 22:18:14;;;;;;;24.70;12.50;;;14.90;99.90;;;;;;4956285;28;20042;-84
2023/09/28 22:20:41;;;;;;;25.10;12.57;;;15.00;99.90;;;;;;4937781;29;20402;-84
2023/09/28 22:23:07;;;;;;;29.35;13.82;;;15.00;99.90;;;;;;4939948;29;20078;-84
2023/09/28 22:25:33;;;;;;;28.52;12.55;;;15.00;99.90;;;;;;4955633;28;20053;-84
2023/09/28 22:28:00;;;;;;;23.75;11.73;;;15.00;99.90;;;;;;4956790;28;20086;-84
2023/09/28 22:30:26;;;;;;;25.48;11.00;;;15.00;99.90;;;;;;4972709;28;20117;-84
2023/09/28 22:32:52;;;;;;;27.20;13.15;;;15.00;99.90;;;;;;4967147;28;20038;-85
2023/09/28 22:35:17;;;;;;;31.83;13.52;;;15.00;99.90;;;;;;4949394;28;20028;-84
2023/09/28 22:37:43;;;;;;;19.92;10.63;;;15.00;99.90;;;;;;4953415;28;20082;-84
2023/09/28 22:40:10;;;;;;;23.02;11.85;;;15.00;99.90;;;;;;4972352;28;20090;-84
2023/09/28 22:42:35;;;;;;;23.92;11.85;;;15.00;99.90;;;;;;4955151;28;20039;-85
2023/09/28 22:45:01;;;;;;;23.88;13.63;;;15.00;99.90;;;;;;4954815;28;20042;-84
2023/09/28 22:47:28;;;;;;;27.15;13.00;;;15.00;99.90;;;;;;4972561;28;20405;-84
2023/09/28 22:49:54;;;;;;;24.88;12.38;;;15.00;99.90;;;;;;4953216;28;20519;-85
2023/09/28 22:52:19;;;;;;;28.95;11.73;;;15.00;99.90;;;;;;4955175;28;20039;-84
2023/09/28 22:54:45;;;;;;;24.00;12.00;;;15.00;99.90;;;;;;4951927;28;20038;-85
2023/09/28 22:57:11;;;;;;;25.52;11.77;;;14.90;99.90;;;;;;4956382;28;20448;-84
2023/09/28 22:59:40;;;;;;;22.48;11.50;;;14.90;99.90;;;;;;4953249;28;20473;-85
2023/09/28 23:02:06;;;;;;;25.90;11.25;;;14.90;99.90;;;;;;4971200;28;20042;-84
2023/09/28 23:04:35;;;;;;;24.38;11.75;;;14.90;99.90;;;;;;4954141;28;20434;-84
2023/09/28 23:07:01;;;;;;;23.85;10.88;;;15.00;99.90;;;;;;4956233;28;20390;-84
2023/09/28 23:09:27;;;;;;;27.92;12.32;;;14.80;99.90;;;;;;4968808;28;20517;-84
2023/09/28 23:11:53;;;;;;;21.05;11.63;;;14.80;99.90;;;;;;4955446;28;20039;-84
2023/09/28 23:14:20;;;;;;;23.35;11.60;;;14.80;99.90;;;;;;4948957;28;20047;-84
2023/09/28 23:16:46;;;;;;;27.90;12.68;;;14.80;99.90;;;;;;4955665;28;20134;-84
2023/09/28 23:19:12;;;;;;;22.35;10.82;;;14.80;99.90;;;;;;4969939;28;20039;-84
2023/09/28 23:21:41;;;;;;;25.13;12.65;;;14.80;99.90;;;;;;4955497;28;20505;-84
2023/09/28 23:24:07;;;;;;;25.48;12.50;;;14.80;99.90;;;;;;4951312;28;20568;-84
2023/09/28 23:26:32;;;;;;;26.52;11.70;;;14.70;99.90;;;;;;4955540;28;20047;-84
2023/09/28 23:29:01;;;;;;;21.40;11.65;;;14.70;99.90;;;;;;4970933;28;20094;-84
2023/09/28 23:31:28;;;;;;;26.38;11.82;;;14.70;99.90;;;;;;4970399;28;20409;-84
2023/09/28 23:33:53;;;;;;;21.35;11.48;;;14.70;99.90;;;;;;4954014;28;20043;-84
2023/09/28 23:36:23;;;;;;;29.98;13.00;;;14.70;99.90;;;;;;4951293;28;20039;-84
2023/09/28 23:38:49;;;;;;;24.10;12.13;;;14.70;99.90;;;;;;4955943;28;20101;-84
2023/09/28 23:41:15;;;;;;;28.00;12.68;;;14.70;99.90;;;;;;4952194;28;20059;-84
2023/09/28 23:43:41;;;;;;;23.33;12.50;;;14.60;99.90;;;;;;4953918;28;20074;-84
2023/09/28 23:46:10;;;;;;;26.38;13.10;;;14.60;99.90;;;;;;4971874;28;20497;-84
2023/09/28 23:48:35;;;;;;;26.58;12.65;;;14.60;99.90;;;;;;4955702;28;20089;-84
2023/09/28 23:51:02;;;;;;;26.92;11.85;;;14.50;99.90;;;;;;4954435;28;20039;-85
2023/09/28 23:53:28;;;;;;;30.98;12.98;;;14.50;99.90;;;;;;4949328;28;20481;-84
2023/09/28 23:55:58;;;;;;;26.40;13.43;;;14.50;99.90;;;;;;4955443;28;20085;-84
2023/09/28 23:58:24;;;;;;;25.77;13.13;;;14.50;99.90;;;;;;4956056;28;20042;-84
